sensor_id;sensor_type;location;lat;lon;timestamp;P1;durP1;ratioP1;P2;durP2;ratioP2
49488;SDS011;35382;51.484;11.476;2024-01-06T00:00:46;7.80;;;3.72;;
49488;SDS011;35382;51.484;11.476;2024-01-06T00:03:11;8.38;;;3.92;;
49488;SDS011;35382;51.484;11.476;2024-01-06T00:05:36;8.40;;;3.92;;
49488;SDS011;35382;51.484;11.476;2024-01-06T00:08:02;7.70;;;4.00;;
49488;SDS011;35382;51.484;11.476;2024-01-06T00:10:27;10.00;;;5.18;;
49488;SDS011;35382;51.484;11.476;2024-01-06T00:12:53;8.50;;;4.53;;
49488;SDS011;35382;51.484;11.476;2024-01-06T00:15:18;8.02;;;4.10;;
49488;SDS011;35382;51.484;11.476;2024-01-06T00:17:43;9.80;;;4.97;;
49488;SDS011;35382;51.484;11.476;2024-01-06T00:20:10;8.63;;;4.22;;
49488;SDS011;35382;51.484;11.476;2024-01-06T00:22:36;12.07;;;4.47;;
49488;SDS011;35382;51.484;11.476;2024-01-06T00:25:01;10.55;;;4.88;;
49488;SDS011;35382;51.484;11.476;2024-01-06T00:27:27;9.13;;;5.03;;
49488;SDS011;35382;51.484;11.476;2024-01-06T00:29:52;9.15;;;5.07;;
49488;SDS011;35382;51.484;11.476;2024-01-06T00:32:17;12.65;;;5.32;;
49488;SDS011;35382;51.484;11.476;2024-01-06T00:34:43;8.25;;;4.78;;
49488;SDS011;35382;51.484;11.476;2024-01-06T00:37:08;14.05;;;6.57;;
49488;SDS011;35382;51.484;11.476;2024-01-06T00:39:37;14.05;;;6.15;;
49488;SDS011;35382;51.484;11.476;2024-01-06T00:42:02;11.05;;;5.93;;
49488;SDS011;35382;51.484;11.476;2024-01-06T00:44:28;24.48;;;12.80;;
49488;SDS011;35382;51.484;11.476;2024-01-06T00:46:53;16.77;;;8.20;;
49488;SDS011;35382;51.484;11.476;2024-01-06T00:49:18;10.23;;;6.75;;
49488;SDS011;35382;51.484;11.476;2024-01-06T00:51:44;14.57;;;7.45;;
49488;SDS011;35382;51.484;11.476;2024-01-06T00:54:09;11.65;;;6.13;;
49488;SDS011;35382;51.484;11.476;2024-01-06T00:56:34;13.43;;;6.95;;
49488;SDS011;35382;51.484;11.476;2024-01-06T00:59:00;15.98;;;6.80;;
49488;SDS011;35382;51.484;11.476;2024-01-06T01:01:25;18.48;;;7.07;;
49488;SDS011;35382;51.484;11.476;2024-01-06T01:03:51;16.33;;;7.03;;
49488;SDS011;35382;51.484;11.476;2024-01-06T01:06:16;10.52;;;6.35;;
49488;SDS011;35382;51.484;11.476;2024-01-06T01:08:41;9.27;;;6.13;;
49488;SDS011;35382;51.484;11.476;2024-01-06T01:11:07;9.63;;;5.40;;
49488;SDS011;35382;51.484;11.476;2024-01-06T01:13:32;12.15;;;5.13;;
49488;SDS011;35382;51.484;11.476;2024-01-06T01:15:58;10.68;;;4.82;;
49488;SDS011;35382;51.484;11.476;2024-01-06T01:18:23;13.27;;;5.32;;
49488;SDS011;35382;51.484;11.476;2024-01-06T01:20:48;15.07;;;6.22;;
49488;SDS011;35382;51.484;11.476;2024-01-06T01:23:14;13.52;;;6.60;;
49488;SDS011;35382;51.484;11.476;2024-01-06T01:25:39;15.23;;;7.28;;
49488;SDS011;35382;51.484;11.476;2024-01-06T01:28:04;14.93;;;7.32;;
49488;SDS011;35382;51.484;11.476;2024-01-06T01:30:30;18.80;;;7.88;;
49488;SDS011;35382;51.484;11.476;2024-01-06T01:32:55;20.13;;;8.48;;
49488;SDS011;35382;51.484;11.476;2024-01-06T01:35:22;17.52;;;8.90;;
49488;SDS011;35382;51.484;11.476;2024-01-06T01:37:47;15.68;;;8.02;;
49488;SDS011;35382;51.484;11.476;2024-01-06T01:40:13;16.50;;;8.02;;
49488;SDS011;35382;51.484;11.476;2024-01-06T01:42:40;16.40;;;8.38;;
49488;SDS011;35382;51.484;11.476;2024-01-06T01:45:06;15.20;;;8.02;;
49488;SDS011;35382;51.484;11.476;2024-01-06T01:47:32;17.20;;;8.05;;
49488;SDS011;35382;51.484;11.476;2024-01-06T01:49:57;12.75;;;6.90;;
49488;SDS011;35382;51.484;11.476;2024-01-06T01:52:23;13.63;;;6.22;;
49488;SDS011;35382;51.484;11.476;2024-01-06T01:54:48;12.93;;;6.32;;
49488;SDS011;35382;51.484;11.476;2024-01-06T01:57:14;11.02;;;5.53;;
49488;SDS011;35382;51.484;11.476;2024-01-06T01:59:40;11.60;;;5.57;;
49488;SDS011;35382;51.484;11.476;2024-01-06T02:02:07;13.90;;;5.18;;
49488;SDS011;35382;51.484;11.476;2024-01-06T02:04:33;9.82;;;5.30;;
49488;SDS011;35382;51.484;11.476;2024-01-06T02:06:59;10.25;;;5.03;;
49488;SDS011;35382;51.484;11.476;2024-01-06T02:09:24;9.48;;;5.10;;
49488;SDS011;35382;51.484;11.476;2024-01-06T02:11:50;9.73;;;4.57;;
49488;SDS011;35382;51.484;11.476;2024-01-06T02:14:15;7.78;;;4.22;;
49488;SDS011;35382;51.484;11.476;2024-01-06T02:16:41;8.05;;;4.35;;
49488;SDS011;35382;51.484;11.476;2024-01-06T02:19:06;10.02;;;3.97;;
49488;SDS011;35382;51.484;11.476;2024-01-06T02:21:35;8.35;;;4.10;;
49488;SDS011;35382;51.484;11.476;2024-01-06T02:24:06;11.10;;;3.72;;
49488;SDS011;35382;51.484;11.476;2024-01-06T02:26:32;6.03;;;3.30;;
49488;SDS011;35382;51.484;11.476;2024-01-06T02:28:57;9.07;;;3.90;;
49488;SDS011;35382;51.484;11.476;2024-01-06T02:31:22;8.07;;;3.90;;
49488;SDS011;35382;51.484;11.476;2024-01-06T02:33:48;6.47;;;3.08;;
49488;SDS011;35382;51.484;11.476;2024-01-06T02:36:14;10.13;;;3.53;;
49488;SDS011;35382;51.484;11.476;2024-01-06T02:38:39;10.68;;;3.28;;
49488;SDS011;35382;51.484;11.476;2024-01-06T02:41:04;5.82;;;3.00;;
49488;SDS011;35382;51.484;11.476;2024-01-06T02:43:30;6.68;;;3.05;;
49488;SDS011;35382;51.484;11.476;2024-01-06T02:45:55;6.78;;;3.47;;
49488;SDS011;35382;51.484;11.476;2024-01-06T02:48:21;6.57;;;3.20;;
49488;SDS011;35382;51.484;11.476;2024-01-06T02:50:46;8.50;;;3.65;;
49488;SDS011;35382;51.484;11.476;2024-01-06T02:53:11;6.30;;;2.70;;
49488;SDS011;35382;51.484;11.476;2024-01-06T02:55:37;7.75;;;3.20;;
49488;SDS011;35382;51.484;11.476;2024-01-06T02:58:02;13.13;;;4.68;;
49488;SDS011;35382;51.484;11.476;2024-01-06T03:00:28;11.98;;;5.65;;
49488;SDS011;35382;51.484;11.476;2024-01-06T03:02:53;9.60;;;4.70;;
49488;SDS011;35382;51.484;11.476;2024-01-06T03:05:18;7.75;;;3.88;;
49488;SDS011;35382;51.484;11.476;2024-01-06T03:07:44;7.72;;;3.05;;
49488;SDS011;35382;51.484;11.476;2024-01-06T03:10:09;9.18;;;3.08;;
49488;SDS011;35382;51.484;11.476;2024-01-06T03:12:35;5.72;;;3.05;;
49488;SDS011;35382;51.484;11.476;2024-01-06T03:15:00;5.10;;;2.88;;
49488;SDS011;35382;51.484;11.476;2024-01-06T03:17:26;9.32;;;4.00;;
49488;SDS011;35382;51.484;11.476;2024-01-06T03:19:52;8.18;;;3.55;;
49488;SDS011;35382;51.484;11.476;2024-01-06T03:22:17;9.90;;;3.53;;
49488;SDS011;35382;51.484;11.476;2024-01-06T03:24:42;9.00;;;3.90;;
49488;SDS011;35382;51.484;11.476;2024-01-06T03:27:08;7.50;;;3.83;;
49488;SDS011;35382;51.484;11.476;2024-01-06T03:29:33;12.05;;;4.50;;
49488;SDS011;35382;51.484;11.476;2024-01-06T03:31:59;8.07;;;4.13;;
49488;SDS011;35382;51.484;11.476;2024-01-06T03:34:24;8.65;;;4.05;;
49488;SDS011;35382;51.484;11.476;2024-01-06T03:36:49;7.30;;;3.70;;
49488;SDS011;35382;51.484;11.476;2024-01-06T03:39:15;7.38;;;3.63;;
49488;SDS011;35382;51.484;11.476;2024-01-06T03:41:40;6.70;;;4.13;;
49488;SDS011;35382;51.484;11.476;2024-01-06T03:44:05;6.85;;;3.35;;
49488;SDS011;35382;51.484;11.476;2024-01-06T03:46:32;7.93;;;3.83;;
49488;SDS011;35382;51.484;11.476;2024-01-06T03:48:58;10.88;;;4.47;;
49488;SDS011;35382;51.484;11.476;2024-01-06T03:51:23;10.35;;;4.28;;
49488;SDS011;35382;51.484;11.476;2024-01-06T03:53:49;9.63;;;4.53;;
49488;SDS011;35382;51.484;11.476;2024-01-06T03:56:14;11.80;;;5.25;;
49488;SDS011;35382;51.484;11.476;2024-01-06T03:58:39;9.15;;;4.68;;
49488;SDS011;35382;51.484;11.476;2024-01-06T04:01:05;9.98;;;4.65;;
49488;SDS011;35382;51.484;11.476;2024-01-06T04:03:30;11.35;;;5.05;;
49488;SDS011;35382;51.484;11.476;2024-01-06T04:05:55;12.82;;;5.35;;
49488;SDS011;35382;51.484;11.476;2024-01-06T04:08:21;13.98;;;5.63;;
49488;SDS011;35382;51.484;11.476;2024-01-06T04:10:46;10.85;;;6.10;;
49488;SDS011;35382;51.484;11.476;2024-01-06T04:13:12;9.40;;;5.22;;
49488;SDS011;35382;51.484;11.476;2024-01-06T04:15:37;8.68;;;4.78;;
49488;SDS011;35382;51.484;11.476;2024-01-06T04:18:03;11.38;;;5.13;;
49488;SDS011;35382;51.484;11.476;2024-01-06T04:20:29;9.30;;;5.17;;
49488;SDS011;35382;51.484;11.476;2024-01-06T04:22:55;10.35;;;5.00;;
49488;SDS011;35382;51.484;11.476;2024-01-06T04:25:21;9.68;;;5.28;;
49488;SDS011;35382;51.484;11.476;2024-01-06T04:27:46;13.32;;;6.32;;
49488;SDS011;35382;51.484;11.476;2024-01-06T04:30:12;10.82;;;5.53;;
49488;SDS011;35382;51.484;11.476;2024-01-06T04:32:38;14.88;;;5.88;;
49488;SDS011;35382;51.484;11.476;2024-01-06T04:35:04;10.05;;;5.70;;
49488;SDS011;35382;51.484;11.476;2024-01-06T04:37:29;14.55;;;6.03;;
49488;SDS011;35382;51.484;11.476;2024-01-06T04:39:55;11.73;;;5.15;;
49488;SDS011;35382;51.484;11.476;2024-01-06T04:42:21;11.48;;;5.70;;
49488;SDS011;35382;51.484;11.476;2024-01-06T04:44:46;10.63;;;4.97;;
49488;SDS011;35382;51.484;11.476;2024-01-06T04:47:11;11.05;;;4.90;;
49488;SDS011;35382;51.484;11.476;2024-01-06T04:49:37;8.70;;;4.75;;
49488;SDS011;35382;51.484;11.476;2024-01-06T04:52:02;10.85;;;5.97;;
49488;SDS011;35382;51.484;11.476;2024-01-06T04:54:28;12.82;;;5.95;;
49488;SDS011;35382;51.484;11.476;2024-01-06T04:56:54;13.52;;;6.68;;
49488;SDS011;35382;51.484;11.476;2024-01-06T04:59:19;13.57;;;6.78;;
49488;SDS011;35382;51.484;11.476;2024-01-06T05:01:45;12.07;;;6.45;;
49488;SDS011;35382;51.484;11.476;2024-01-06T05:04:10;14.38;;;7.40;;
49488;SDS011;35382;51.484;11.476;2024-01-06T05:06:35;15.10;;;8.85;;
49488;SDS011;35382;51.484;11.476;2024-01-06T05:09:01;10.77;;;5.75;;
49488;SDS011;35382;51.484;11.476;2024-01-06T05:11:26;13.30;;;5.55;;
49488;SDS011;35382;51.484;11.476;2024-01-06T05:13:52;7.25;;;4.32;;
49488;SDS011;35382;51.484;11.476;2024-01-06T05:16:17;11.95;;;4.30;;
49488;SDS011;35382;51.484;11.476;2024-01-06T05:18:42;9.48;;;3.72;;
49488;SDS011;35382;51.484;11.476;2024-01-06T05:21:08;9.52;;;4.20;;
49488;SDS011;35382;51.484;11.476;2024-01-06T05:23:33;7.03;;;3.70;;
49488;SDS011;35382;51.484;11.476;2024-01-06T05:25:58;10.07;;;3.70;;
49488;SDS011;35382;51.484;11.476;2024-01-06T05:28:24;7.05;;;3.47;;
49488;SDS011;35382;51.484;11.476;2024-01-06T05:30:49;7.82;;;3.10;;
49488;SDS011;35382;51.484;11.476;2024-01-06T05:33:15;6.72;;;3.60;;
49488;SDS011;35382;51.484;11.476;2024-01-06T05:35:41;6.87;;;3.37;;
49488;SDS011;35382;51.484;11.476;2024-01-06T05:38:06;8.93;;;4.65;;
49488;SDS011;35382;51.484;11.476;2024-01-06T05:40:32;6.78;;;3.20;;
49488;SDS011;35382;51.484;11.476;2024-01-06T05:42:57;8.60;;;3.40;;
49488;SDS011;35382;51.484;11.476;2024-01-06T05:45:23;6.57;;;3.30;;
49488;SDS011;35382;51.484;11.476;2024-01-06T05:47:48;6.13;;;3.30;;
49488;SDS011;35382;51.484;11.476;2024-01-06T05:50:17;6.55;;;3.60;;
49488;SDS011;35382;51.484;11.476;2024-01-06T05:52:43;8.65;;;3.50;;
49488;SDS011;35382;51.484;11.476;2024-01-06T05:55:08;8.07;;;4.45;;
49488;SDS011;35382;51.484;11.476;2024-01-06T05:57:34;10.75;;;4.65;;
49488;SDS011;35382;51.484;11.476;2024-01-06T05:59:59;16.60;;;9.18;;
49488;SDS011;35382;51.484;11.476;2024-01-06T06:02:25;14.02;;;9.57;;
49488;SDS011;35382;51.484;11.476;2024-01-06T06:04:51;10.23;;;4.88;;
49488;SDS011;35382;51.484;11.476;2024-01-06T06:07:17;8.27;;;3.45;;
49488;SDS011;35382;51.484;11.476;2024-01-06T06:09:42;6.95;;;3.28;;
49488;SDS011;35382;51.484;11.476;2024-01-06T06:12:08;6.88;;;3.40;;
49488;SDS011;35382;51.484;11.476;2024-01-06T06:14:33;9.82;;;4.03;;
49488;SDS011;35382;51.484;11.476;2024-01-06T06:16:59;7.95;;;2.95;;
49488;SDS011;35382;51.484;11.476;2024-01-06T06:19:24;8.32;;;3.70;;
49488;SDS011;35382;51.484;11.476;2024-01-06T06:21:50;7.07;;;2.92;;
49488;SDS011;35382;51.484;11.476;2024-01-06T06:24:15;5.65;;;2.83;;
49488;SDS011;35382;51.484;11.476;2024-01-06T06:26:41;7.82;;;2.97;;
49488;SDS011;35382;51.484;11.476;2024-01-06T06:29:07;8.98;;;3.13;;
49488;SDS011;35382;51.484;11.476;2024-01-06T06:31:32;7.28;;;3.30;;
49488;SDS011;35382;51.484;11.476;2024-01-06T06:33:57;6.68;;;3.50;;
49488;SDS011;35382;51.484;11.476;2024-01-06T06:36:23;5.95;;;3.00;;
49488;SDS011;35382;51.484;11.476;2024-01-06T06:38:48;7.43;;;2.90;;
49488;SDS011;35382;51.484;11.476;2024-01-06T06:41:14;7.63;;;2.78;;
49488;SDS011;35382;51.484;11.476;2024-01-06T06:43:39;8.23;;;2.90;;
49488;SDS011;35382;51.484;11.476;2024-01-06T06:46:05;8.38;;;2.80;;
49488;SDS011;35382;51.484;11.476;2024-01-06T06:48:30;6.22;;;2.83;;
49488;SDS011;35382;51.484;11.476;2024-01-06T06:50:56;7.00;;;2.58;;
49488;SDS011;35382;51.484;11.476;2024-01-06T06:53:21;7.22;;;3.00;;
49488;SDS011;35382;51.484;11.476;2024-01-06T06:55:47;8.65;;;2.80;;
49488;SDS011;35382;51.484;11.476;2024-01-06T06:58:12;7.35;;;3.08;;
49488;SDS011;35382;51.484;11.476;2024-01-06T07:00:37;9.00;;;3.50;;
49488;SDS011;35382;51.484;11.476;2024-01-06T07:03:03;9.10;;;3.03;;
49488;SDS011;35382;51.484;11.476;2024-01-06T07:05:29;6.45;;;3.03;;
49488;SDS011;35382;51.484;11.476;2024-01-06T07:07:54;6.80;;;3.25;;
49488;SDS011;35382;51.484;11.476;2024-01-06T07:10:19;6.50;;;2.78;;
49488;SDS011;35382;51.484;11.476;2024-01-06T07:12:47;22.05;;;14.45;;
49488;SDS011;35382;51.484;11.476;2024-01-06T07:15:13;18.63;;;12.93;;
49488;SDS011;35382;51.484;11.476;2024-01-06T07:17:39;23.17;;;15.30;;
49488;SDS011;35382;51.484;11.476;2024-01-06T07:20:06;8.25;;;3.60;;
49488;SDS011;35382;51.484;11.476;2024-01-06T07:22:32;8.75;;;3.08;;
49488;SDS011;35382;51.484;11.476;2024-01-06T07:24:58;7.55;;;3.08;;
49488;SDS011;35382;51.484;11.476;2024-01-06T07:27:23;10.98;;;3.25;;
49488;SDS011;35382;51.484;11.476;2024-01-06T07:29:49;5.50;;;2.67;;
49488;SDS011;35382;51.484;11.476;2024-01-06T07:32:14;5.55;;;2.65;;
49488;SDS011;35382;51.484;11.476;2024-01-06T07:34:40;7.93;;;2.80;;
49488;SDS011;35382;51.484;11.476;2024-01-06T07:37:05;7.20;;;2.60;;
49488;SDS011;35382;51.484;11.476;2024-01-06T07:39:30;7.07;;;2.70;;
49488;SDS011;35382;51.484;11.476;2024-01-06T07:41:56;6.75;;;3.05;;
49488;SDS011;35382;51.484;11.476;2024-01-06T07:44:21;9.35;;;2.42;;
49488;SDS011;35382;51.484;11.476;2024-01-06T07:46:47;7.07;;;3.20;;
49488;SDS011;35382;51.484;11.476;2024-01-06T07:49:12;11.25;;;6.97;;
49488;SDS011;35382;51.484;11.476;2024-01-06T07:51:39;17.88;;;10.57;;
49488;SDS011;35382;51.484;11.476;2024-01-06T07:54:04;5.37;;;2.93;;
49488;SDS011;35382;51.484;11.476;2024-01-06T07:56:30;5.88;;;2.83;;
49488;SDS011;35382;51.484;11.476;2024-01-06T07:58:55;5.57;;;2.67;;
49488;SDS011;35382;51.484;11.476;2024-01-06T08:01:21;8.80;;;3.30;;
49488;SDS011;35382;51.484;11.476;2024-01-06T08:03:46;9.60;;;4.25;;
49488;SDS011;35382;51.484;11.476;2024-01-06T08:06:12;12.13;;;6.03;;
49488;SDS011;35382;51.484;11.476;2024-01-06T08:08:37;8.70;;;4.93;;
49488;SDS011;35382;51.484;11.476;2024-01-06T08:11:03;7.28;;;3.95;;
49488;SDS011;35382;51.484;11.476;2024-01-06T08:13:28;10.60;;;4.53;;
49488;SDS011;35382;51.484;11.476;2024-01-06T08:15:54;16.42;;;4.88;;
49488;SDS011;35382;51.484;11.476;2024-01-06T08:18:20;11.38;;;5.40;;
49488;SDS011;35382;51.484;11.476;2024-01-06T08:20:46;11.13;;;6.10;;
49488;SDS011;35382;51.484;11.476;2024-01-06T08:23:12;10.82;;;5.00;;
49488;SDS011;35382;51.484;11.476;2024-01-06T08:25:37;11.55;;;4.60;;
49488;SDS011;35382;51.484;11.476;2024-01-06T08:28:03;14.50;;;4.97;;
49488;SDS011;35382;51.484;11.476;2024-01-06T08:30:28;14.65;;;6.07;;
49488;SDS011;35382;51.484;11.476;2024-01-06T08:32:54;14.18;;;5.50;;
49488;SDS011;35382;51.484;11.476;2024-01-06T08:35:19;16.05;;;5.50;;
49488;SDS011;35382;51.484;11.476;2024-01-06T08:37:45;11.30;;;5.13;;
49488;SDS011;35382;51.484;11.476;2024-01-06T08:40:11;9.82;;;4.53;;
49488;SDS011;35382;51.484;11.476;2024-01-06T08:42:37;9.88;;;4.50;;
49488;SDS011;35382;51.484;11.476;2024-01-06T08:45:03;11.80;;;4.38;;
49488;SDS011;35382;51.484;11.476;2024-01-06T08:47:30;8.15;;;4.10;;
49488;SDS011;35382;51.484;11.476;2024-01-06T08:49:56;10.88;;;5.05;;
49488;SDS011;35382;51.484;11.476;2024-01-06T08:52:22;9.50;;;4.28;;
49488;SDS011;35382;51.484;11.476;2024-01-06T08:54:50;10.65;;;4.68;;
49488;SDS011;35382;51.484;11.476;2024-01-06T08:57:16;9.70;;;4.75;;
49488;SDS011;35382;51.484;11.476;2024-01-06T08:59:41;9.13;;;4.47;;
49488;SDS011;35382;51.484;11.476;2024-01-06T09:02:07;7.65;;;4.10;;
49488;SDS011;35382;51.484;11.476;2024-01-06T09:04:32;9.07;;;4.38;;
49488;SDS011;35382;51.484;11.476;2024-01-06T09:06:58;11.10;;;5.22;;
49488;SDS011;35382;51.484;11.476;2024-01-06T09:09:26;9.85;;;6.43;;
49488;SDS011;35382;51.484;11.476;2024-01-06T09:11:52;11.95;;;7.25;;
49488;SDS011;35382;51.484;11.476;2024-01-06T09:14:17;13.57;;;6.55;;
49488;SDS011;35382;51.484;11.476;2024-01-06T09:16:43;12.55;;;7.07;;
49488;SDS011;35382;51.484;11.476;2024-01-06T09:19:09;10.43;;;5.65;;
49488;SDS011;35382;51.484;11.476;2024-01-06T09:21:34;8.73;;;4.05;;
49488;SDS011;35382;51.484;11.476;2024-01-06T09:24:00;8.20;;;4.28;;
49488;SDS011;35382;51.484;11.476;2024-01-06T09:26:25;13.02;;;5.30;;
49488;SDS011;35382;51.484;11.476;2024-01-06T09:28:51;11.40;;;6.82;;
49488;SDS011;35382;51.484;11.476;2024-01-06T09:31:16;10.68;;;6.95;;
49488;SDS011;35382;51.484;11.476;2024-01-06T09:33:42;10.40;;;6.85;;
49488;SDS011;35382;51.484;11.476;2024-01-06T09:36:07;11.20;;;5.95;;
49488;SDS011;35382;51.484;11.476;2024-01-06T09:38:33;7.90;;;3.50;;
49488;SDS011;35382;51.484;11.476;2024-01-06T09:40:58;10.18;;;3.40;;
49488;SDS011;35382;51.484;11.476;2024-01-06T09:43:24;7.50;;;3.25;;
49488;SDS011;35382;51.484;11.476;2024-01-06T09:45:55;9.15;;;3.70;;
49488;SDS011;35382;51.484;11.476;2024-01-06T09:48:28;9.50;;;3.70;;
49488;SDS011;35382;51.484;11.476;2024-01-06T09:50:55;9.63;;;3.30;;
49488;SDS011;35382;51.484;11.476;2024-01-06T09:53:23;8.40;;;3.00;;
49488;SDS011;35382;51.484;11.476;2024-01-06T09:55:54;6.35;;;2.50;;
49488;SDS011;35382;51.484;11.476;2024-01-06T10:00:48;5.43;;;2.20;;
49488;SDS011;35382;51.484;11.476;2024-01-06T10:03:13;6.38;;;2.70;;
49488;SDS011;35382;51.484;11.476;2024-01-06T10:05:39;8.20;;;2.72;;
49488;SDS011;35382;51.484;11.476;2024-01-06T10:10:33;9.30;;;3.65;;
49488;SDS011;35382;51.484;11.476;2024-01-06T10:12:58;7.60;;;2.88;;
49488;SDS011;35382;51.484;11.476;2024-01-06T10:15:24;8.10;;;3.15;;
49488;SDS011;35382;51.484;11.476;2024-01-06T10:17:49;6.70;;;2.65;;
49488;SDS011;35382;51.484;11.476;2024-01-06T10:20:15;8.38;;;2.70;;
49488;SDS011;35382;51.484;11.476;2024-01-06T10:22:41;7.50;;;2.92;;
49488;SDS011;35382;51.484;11.476;2024-01-06T10:25:07;6.20;;;2.50;;
49488;SDS011;35382;51.484;11.476;2024-01-06T10:27:35;6.47;;;2.58;;
49488;SDS011;35382;51.484;11.476;2024-01-06T10:30:01;6.72;;;2.50;;
49488;SDS011;35382;51.484;11.476;2024-01-06T10:32:26;6.95;;;2.60;;
49488;SDS011;35382;51.484;11.476;2024-01-06T10:34:52;5.53;;;2.33;;
49488;SDS011;35382;51.484;11.476;2024-01-06T10:37:17;5.15;;;2.50;;
49488;SDS011;35382;51.484;11.476;2024-01-06T10:39:43;5.38;;;2.40;;
49488;SDS011;35382;51.484;11.476;2024-01-06T10:42:08;8.35;;;3.20;;
49488;SDS011;35382;51.484;11.476;2024-01-06T10:44:36;8.02;;;2.80;;
49488;SDS011;35382;51.484;11.476;2024-01-06T10:47:03;6.85;;;2.72;;
49488;SDS011;35382;51.484;11.476;2024-01-06T10:49:29;17.17;;;6.00;;
49488;SDS011;35382;51.484;11.476;2024-01-06T10:51:55;7.97;;;4.00;;
49488;SDS011;35382;51.484;11.476;2024-01-06T10:54:23;8.88;;;3.58;;
49488;SDS011;35382;51.484;11.476;2024-01-06T10:56:49;10.27;;;3.70;;
49488;SDS011;35382;51.484;11.476;2024-01-06T10:59:17;9.48;;;4.38;;
49488;SDS011;35382;51.484;11.476;2024-01-06T11:01:45;9.13;;;5.20;;
49488;SDS011;35382;51.484;11.476;2024-01-06T11:04:11;14.00;;;7.35;;
49488;SDS011;35382;51.484;11.476;2024-01-06T11:06:37;13.05;;;8.07;;
49488;SDS011;35382;51.484;11.476;2024-01-06T11:09:09;17.33;;;9.40;;
49488;SDS011;35382;51.484;11.476;2024-01-06T11:11:38;15.80;;;9.77;;
49488;SDS011;35382;51.484;11.476;2024-01-06T11:14:20;16.35;;;9.38;;
49488;SDS011;35382;51.484;11.476;2024-01-06T11:16:50;16.02;;;10.85;;
49488;SDS011;35382;51.484;11.476;2024-01-06T11:24:55;19.08;;;12.15;;
49488;SDS011;35382;51.484;11.476;2024-01-06T11:29:48;21.55;;;13.30;;
49488;SDS011;35382;51.484;11.476;2024-01-06T11:32:20;18.80;;;13.43;;
49488;SDS011;35382;51.484;11.476;2024-01-06T11:34:51;21.80;;;14.03;;
49488;SDS011;35382;51.484;11.476;2024-01-06T11:37:19;19.65;;;13.90;;
49488;SDS011;35382;51.484;11.476;2024-01-06T11:39:49;23.23;;;15.77;;
49488;SDS011;35382;51.484;11.476;2024-01-06T11:42:15;24.30;;;15.55;;
49488;SDS011;35382;51.484;11.476;2024-01-06T11:44:44;25.95;;;15.73;;
49488;SDS011;35382;51.484;11.476;2024-01-06T11:47:15;22.83;;;15.73;;
49488;SDS011;35382;51.484;11.476;2024-01-06T11:52:09;28.23;;;15.25;;
49488;SDS011;35382;51.484;11.476;2024-01-06T11:54:35;23.83;;;15.40;;
49488;SDS011;35382;51.484;11.476;2024-01-06T11:57:01;23.10;;;14.98;;
49488;SDS011;35382;51.484;11.476;2024-01-06T11:59:26;24.67;;;15.02;;
49488;SDS011;35382;51.484;11.476;2024-01-06T12:01:51;28.13;;;17.77;;
49488;SDS011;35382;51.484;11.476;2024-01-06T12:04:17;30.17;;;16.85;;
49488;SDS011;35382;51.484;11.476;2024-01-06T12:06:42;24.85;;;16.05;;
49488;SDS011;35382;51.484;11.476;2024-01-06T12:09:10;25.13;;;15.85;;
49488;SDS011;35382;51.484;11.476;2024-01-06T12:11:36;26.40;;;15.93;;
49488;SDS011;35382;51.484;11.476;2024-01-06T12:14:02;22.15;;;14.27;;
49488;SDS011;35382;51.484;11.476;2024-01-06T12:16:27;23.58;;;14.23;;
49488;SDS011;35382;51.484;11.476;2024-01-06T12:18:53;25.10;;;15.23;;
49488;SDS011;35382;51.484;11.476;2024-01-06T12:21:19;24.75;;;15.05;;
49488;SDS011;35382;51.484;11.476;2024-01-06T12:23:44;24.33;;;14.70;;
49488;SDS011;35382;51.484;11.476;2024-01-06T12:26:10;26.55;;;15.55;;
49488;SDS011;35382;51.484;11.476;2024-01-06T12:28:35;27.50;;;16.45;;
49488;SDS011;35382;51.484;11.476;2024-01-06T12:31:03;29.15;;;16.33;;
49488;SDS011;35382;51.484;11.476;2024-01-06T12:33:29;28.58;;;17.73;;
49488;SDS011;35382;51.484;11.476;2024-01-06T12:35:57;27.42;;;16.55;;
49488;SDS011;35382;51.484;11.476;2024-01-06T12:38:23;27.23;;;14.88;;
49488;SDS011;35382;51.484;11.476;2024-01-06T12:40:49;30.30;;;17.58;;
49488;SDS011;35382;51.484;11.476;2024-01-06T12:43:14;28.80;;;16.55;;
49488;SDS011;35382;51.484;11.476;2024-01-06T12:45:39;31.20;;;17.80;;
49488;SDS011;35382;51.484;11.476;2024-01-06T12:48:05;28.92;;;17.48;;
49488;SDS011;35382;51.484;11.476;2024-01-06T12:50:31;29.88;;;17.67;;
49488;SDS011;35382;51.484;11.476;2024-01-06T12:52:56;31.25;;;16.50;;
49488;SDS011;35382;51.484;11.476;2024-01-06T12:55:21;29.92;;;16.83;;
49488;SDS011;35382;51.484;11.476;2024-01-06T12:57:47;28.95;;;16.30;;
49488;SDS011;35382;51.484;11.476;2024-01-06T13:00:12;30.25;;;17.17;;
49488;SDS011;35382;51.484;11.476;2024-01-06T13:02:38;27.30;;;16.40;;
49488;SDS011;35382;51.484;11.476;2024-01-06T13:05:04;30.90;;;16.98;;
49488;SDS011;35382;51.484;11.476;2024-01-06T13:07:29;31.08;;;16.23;;
49488;SDS011;35382;51.484;11.476;2024-01-06T13:09:55;30.52;;;17.13;;
49488;SDS011;35382;51.484;11.476;2024-01-06T13:12:21;28.00;;;15.05;;
49488;SDS011;35382;51.484;11.476;2024-01-06T13:14:46;27.02;;;15.85;;
49488;SDS011;35382;51.484;11.476;2024-01-06T13:17:12;28.88;;;16.77;;
49488;SDS011;35382;51.484;11.476;2024-01-06T13:19:40;108.35;;;48.20;;
49488;SDS011;35382;51.484;11.476;2024-01-06T13:22:05;34.13;;;18.63;;
49488;SDS011;35382;51.484;11.476;2024-01-06T13:24:31;35.63;;;18.40;;
49488;SDS011;35382;51.484;11.476;2024-01-06T13:26:56;34.08;;;17.23;;
49488;SDS011;35382;51.484;11.476;2024-01-06T13:29:22;27.92;;;16.33;;
49488;SDS011;35382;51.484;11.476;2024-01-06T13:31:47;32.35;;;16.65;;
49488;SDS011;35382;51.484;11.476;2024-01-06T13:34:13;33.72;;;17.85;;
49488;SDS011;35382;51.484;11.476;2024-01-06T13:36:39;30.85;;;17.83;;
49488;SDS011;35382;51.484;11.476;2024-01-06T13:39:04;32.53;;;18.40;;
49488;SDS011;35382;51.484;11.476;2024-01-06T13:41:29;33.28;;;17.08;;
49488;SDS011;35382;51.484;11.476;2024-01-06T13:43:58;37.53;;;16.98;;
49488;SDS011;35382;51.484;11.476;2024-01-06T13:46:23;32.22;;;17.50;;
49488;SDS011;35382;51.484;11.476;2024-01-06T13:48:49;36.80;;;18.88;;
49488;SDS011;35382;51.484;11.476;2024-01-06T13:51:14;37.30;;;18.70;;
49488;SDS011;35382;51.484;11.476;2024-01-06T13:53:39;38.70;;;18.42;;
49488;SDS011;35382;51.484;11.476;2024-01-06T13:56:05;37.65;;;19.33;;
49488;SDS011;35382;51.484;11.476;2024-01-06T13:58:31;39.25;;;20.58;;
49488;SDS011;35382;51.484;11.476;2024-01-06T14:00:56;46.63;;;21.80;;
49488;SDS011;35382;51.484;11.476;2024-01-06T14:03:22;67.82;;;32.45;;
49488;SDS011;35382;51.484;11.476;2024-01-06T14:05:47;44.08;;;20.98;;
49488;SDS011;35382;51.484;11.476;2024-01-06T14:08:13;41.75;;;20.65;;
49488;SDS011;35382;51.484;11.476;2024-01-06T14:10:38;37.33;;;19.90;;
49488;SDS011;35382;51.484;11.476;2024-01-06T14:13:03;40.38;;;18.63;;
49488;SDS011;35382;51.484;11.476;2024-01-06T14:15:29;41.35;;;20.35;;
49488;SDS011;35382;51.484;11.476;2024-01-06T14:17:54;52.55;;;19.52;;
49488;SDS011;35382;51.484;11.476;2024-01-06T14:20:19;38.42;;;19.45;;
49488;SDS011;35382;51.484;11.476;2024-01-06T14:22:45;46.95;;;20.70;;
49488;SDS011;35382;51.484;11.476;2024-01-06T14:25:12;42.00;;;19.95;;
49488;SDS011;35382;51.484;11.476;2024-01-06T14:27:38;42.60;;;18.77;;
49488;SDS011;35382;51.484;11.476;2024-01-06T14:30:03;44.78;;;20.60;;